Peck, ID (83545)

9:09 AM PDT on October 25, 2014 (GMT -0700)
New Hope Subdivision | Change Station
CLOSE
Current Station
Personal Weather Station
Location: Lenore, ID
Elevation: 2087 ft
Nearby Weather Stations

Elev 2087 ft 46.52 °N, 116.38 °W | Updated 10 seconds ago

Clear
Clear
46.0 °F
Feels Like 46 °F
N
0.7
Wind Variable Wind from North
Gusts 0.7 mph

Today
High -- | Low -- °F
--% Chance of Precip.
Yesterday
High -- | Low -- °F
Precip. -- in
7:17 AM 5:41 PM
Waxing Crescent, 3% visible
Pressure 29.70 in
Visibility 10.0 miles
Clouds Clear
Windchill 46 °F
Dew Point 46 °F
Humidity 99%
Rainfall 0.00 in
Snow Depth Not available.
UV 1 out of 12
Pollen 2.40 out of 12
Air Quality Not available.
Flu Activity No Activity
METAR KLWS 251556Z 08008KT 10SM CLR 10/08 A2969 RMK AO2 SLP056 T01000078

More Conditions Fewer Conditions

Pressure 29.70 in
Visibility 10.0 miles
Clouds Clear
Windchill 46 °F
Dew Point 46 °F
Humidity 99%
Rainfall 0.00 in
Snow Depth Not available.
UV 1 out of 12
Pollen 2.40 out of 12
Air Quality Not available.
Flu Activity No Activity
METAR KLWS 251556Z 08008KT 10SM CLR 10/08 A2969 RMK AO2 SLP056 T01000078

More Conditions Fewer Conditions

10-Day Weather Forecast

Almanac

Astronomy

Oct. 25, 2014 Rise Set
Actual Time 7:17 AM PDT 5:41 PM PDT
Civil Twilight 6:46 AM PDT 6:12 PM PDT
Nautical Twilight 6:10 AM PDT 6:47 PM PDT
Astronomical Twilight 5:36 AM PDT 7:22 PM PDT
Moon 9:05 AM PDT 7:02 PM PDT
Length of Visible Light 11h 26m
Length of Day
10h 24m
Tomorrow will be 3m 5s shorter.
Waxing Crescent, 3% of the Moon is Illuminated
Today
Waxing Crescent
Oct 30
First Quarter
Nov 6
Full
Nov 14
Last Quarter
Nov 22
New

Today's Extremes

State Highs State Lows

Community

WunderPhotos

Upload Photos

1,764,884 photos uploaded!

Nearby

Snow Depth

Station Depth Elevation
Elk Butte 0 in 5690 ft
Moscow Mountain 0 in 4700 ft
Shanghi Summit 0 in 4570 ft
Hemlock Butte 0 in 5810 ft
Lost Lake 0 in 6110 ft

Earthquake Activity

City Distance Mag. Time & Date
No recent earthquake activity has been reported nearby.
Minimum magnitude displayed is 2.5.

Coastal Water Temperatures

Place Temperature
No Stations Reporting

Nearby Weather Stations